Oromocto, Canada
Current Conditions -  °F | °C
As of 1:00 AM on Tuesday 27 Jan 2015 (Local Time) from CYCX Reporting Station
Overcast Overcast  
Wind Chill: -9°   Ceiling: 20000
Heat Index:   Visibility: 15mi
Dew Point: -8°   Wind: 9mph
Humidity: 56%   Direction: 30°NNE
Pressure: 30.3"   Gusts: NA
Location:  45.84°N, 66.48°W
Report Text: CYCX 270500Z 03008KT 15SM OVC200 M15/M22 A3030 RMK CI8DA-4065FT SLP264
Loading
Personal Weather Stations






























Interactive Weather Map New forecast layout! Learn more

10-Day Weather Forecast

Advertisements
Track Severe Weather on mobile